createdAt,value
2022-08-31T00:04:32.901Z,18.20
2022-08-31T00:07:01.067Z,18.30
2022-08-31T00:09:31.148Z,17.50
2022-08-31T00:11:59.327Z,17.80
2022-08-31T00:14:29.015Z,18.40
2022-08-31T00:16:57.743Z,18.20
2022-08-31T00:21:55.913Z,17.40
2022-08-31T00:26:52.679Z,18.30
2022-08-31T00:29:20.976Z,17.60
2022-08-31T00:31:49.173Z,17.30
2022-08-31T00:34:17.431Z,17.30
2022-08-31T00:36:47.469Z,17.20
2022-08-31T00:39:17.200Z,17.70
2022-08-31T00:44:16.105Z,18.80
2022-08-31T00:46:45.283Z,18.10
2022-08-31T00:49:18.248Z,17.70
2022-08-31T00:51:59.350Z,17.50
2022-08-31T00:54:31.655Z,17.60
2022-08-31T00:57:00.440Z,17.50
2022-08-31T00:59:29.564Z,18.40
2022-08-31T01:01:57.710Z,18.40
2022-08-31T01:04:25.986Z,17.40
2022-08-31T01:06:55.726Z,17.60
2022-08-31T01:09:26.238Z,18.00
2022-08-31T01:14:22.914Z,17.20
2022-08-31T01:16:53.965Z,17.30
2022-08-31T01:19:30.397Z,17.40
2022-08-31T01:22:05.921Z,17.30
2022-08-31T01:24:35.769Z,17.40
2022-08-31T01:27:07.735Z,17.50
2022-08-31T01:29:37.313Z,17.50
2022-08-31T01:32:06.623Z,20.40
2022-08-31T01:34:35.364Z,17.20
2022-08-31T01:39:32.407Z,17.50
2022-08-31T01:42:02.025Z,17.20
2022-08-31T01:44:30.275Z,17.10
2022-08-31T01:46:58.529Z,17.10
2022-08-31T01:49:26.974Z,18.20
2022-08-31T01:51:55.781Z,17.10
2022-08-31T01:54:25.200Z,17.10
2022-08-31T01:56:53.391Z,17.20
2022-08-31T01:59:25.149Z,17.00
2022-08-31T02:01:55.488Z,17.40
2022-08-31T02:04:26.422Z,17.10
2022-08-31T02:06:57.426Z,17.40
2022-08-31T02:09:26.353Z,17.40
2022-08-31T02:11:54.568Z,16.80
2022-08-31T02:14:24.302Z,16.90
2022-08-31T02:19:20.905Z,16.70
2022-08-31T02:24:17.461Z,17.00
2022-08-31T02:26:45.582Z,16.60
2022-08-31T02:31:43.449Z,16.70
2022-08-31T02:34:11.597Z,17.10
2022-08-31T02:36:39.687Z,16.90
2022-08-31T02:39:09.463Z,17.00
2022-08-31T02:41:37.959Z,17.40
2022-08-31T02:44:06.277Z,16.70
2022-08-31T02:46:34.543Z,17.10
2022-08-31T02:49:04.534Z,16.40
2022-08-31T02:56:29.442Z,16.70
2022-08-31T03:01:27.457Z,16.10
2022-08-31T03:03:55.636Z,16.00
2022-08-31T03:06:25.441Z,16.40
2022-08-31T03:08:53.688Z,16.30
2022-08-31T03:16:22.529Z,15.90
2022-08-31T03:18:50.994Z,16.90
2022-08-31T03:23:48.992Z,16.80
2022-08-31T03:28:46.097Z,16.40
2022-08-31T03:31:14.304Z,16.80
2022-08-31T03:33:42.497Z,16.80
2022-08-31T03:41:09.353Z,16.40
2022-08-31T03:43:38.233Z,16.30
2022-08-31T03:51:09.309Z,16.20
2022-08-31T03:53:37.513Z,16.00
2022-08-31T03:56:09.346Z,16.20
2022-08-31T03:58:38.692Z,16.20
2022-08-31T04:01:07.448Z,16.10
2022-08-31T04:03:37.225Z,16.50
2022-08-31T04:06:09.790Z,16.10
2022-08-31T04:08:38.177Z,16.80
2022-08-31T04:11:11.526Z,15.90
2022-08-31T04:13:41.205Z,15.90
2022-08-31T04:16:13.112Z,16.20
2022-08-31T04:18:42.411Z,15.90
2022-08-31T04:21:13.305Z,16.20
2022-08-31T04:23:41.919Z,16.00
2022-08-31T04:26:18.950Z,15.10
2022-08-31T04:31:15.961Z,15.70
2022-08-31T04:36:14.279Z,15.70
2022-08-31T04:38:44.416Z,15.50
2022-08-31T04:41:14.363Z,16.00
2022-08-31T04:43:47.538Z,16.00
2022-08-31T04:46:16.600Z,15.80
2022-08-31T04:51:15.228Z,15.90
2022-08-31T04:53:44.348Z,15.80
2022-08-31T04:56:15.292Z,15.80
2022-08-31T04:58:46.865Z,15.60
2022-08-31T05:01:21.784Z,16.20
2022-08-31T05:03:53.246Z,16.00
2022-08-31T05:06:22.757Z,15.80
2022-08-31T05:08:55.106Z,16.00
2022-08-31T05:11:25.174Z,16.00
2022-08-31T05:13:55.325Z,15.90
2022-08-31T05:18:52.925Z,15.80
2022-08-31T05:21:28.338Z,15.70
2022-08-31T05:23:57.272Z,16.60
2022-08-31T05:26:27.396Z,15.80
2022-08-31T05:28:58.210Z,16.40
2022-08-31T05:31:29.205Z,16.40
2022-08-31T05:33:58.144Z,17.00
2022-08-31T05:38:58.971Z,16.60
2022-08-31T05:41:30.387Z,16.20
2022-08-31T05:43:59.868Z,16.90
2022-08-31T05:46:29.035Z,16.20
2022-08-31T05:56:25.603Z,16.40
2022-08-31T05:58:55.175Z,16.70
2022-08-31T06:01:26.564Z,17.10
2022-08-31T06:03:55.144Z,17.10
2022-08-31T06:06:23.535Z,17.10
2022-08-31T06:11:22.479Z,16.40
2022-08-31T06:13:52.645Z,16.20
2022-08-31T06:16:22.207Z,16.60
2022-08-31T06:18:53.116Z,16.60
2022-08-31T06:21:24.764Z,17.20
2022-08-31T06:23:55.033Z,17.20
2022-08-31T06:26:24.112Z,17.00
2022-08-31T06:28:54.604Z,16.10
2022-08-31T06:31:26.912Z,16.40
2022-08-31T06:33:57.320Z,16.60
2022-08-31T06:36:28.580Z,16.90
2022-08-31T06:38:59.292Z,16.50
2022-08-31T06:41:33.241Z,17.50
2022-08-31T06:44:06.158Z,16.90
2022-08-31T06:46:36.092Z,16.90
2022-08-31T06:49:08.546Z,16.80
2022-08-31T06:51:38.417Z,17.50
2022-08-31T06:54:27.980Z,17.50
2022-08-31T06:56:58.716Z,17.70
2022-08-31T06:59:29.105Z,17.50
2022-08-31T07:01:58.682Z,17.70
2022-08-31T07:04:28.676Z,17.30
2022-08-31T07:06:56.775Z,17.40
2022-08-31T07:09:25.032Z,17.60
2022-08-31T07:11:53.905Z,17.70
2022-08-31T07:14:24.534Z,17.60
2022-08-31T07:16:53.906Z,17.70
2022-08-31T07:19:23.008Z,17.30
2022-08-31T07:21:54.556Z,17.90
2022-08-31T07:24:27.772Z,17.90
2022-08-31T07:26:58.614Z,17.40
2022-08-31T07:29:30.321Z,17.50
2022-08-31T07:31:59.458Z,18.10
2022-08-31T07:34:30.104Z,18.00
2022-08-31T07:37:18.900Z,17.80
2022-08-31T07:40:07.787Z,17.60
2022-08-31T07:42:40.145Z,18.70
2022-08-31T07:45:13.178Z,18.30
2022-08-31T07:47:45.335Z,18.50
2022-08-31T07:50:14.174Z,18.60
2022-08-31T07:52:48.494Z,18.30
2022-08-31T07:55:18.524Z,19.10
2022-08-31T08:00:20.796Z,19.00
2022-08-31T08:02:53.303Z,19.10
2022-08-31T08:05:26.901Z,19.40
2022-08-31T08:08:06.026Z,19.00
2022-08-31T08:10:39.674Z,22.60
2022-08-31T08:13:08.905Z,19.20
2022-08-31T08:15:37.377Z,19.90
2022-08-31T08:18:10.783Z,19.30
2022-08-31T08:20:39.976Z,19.90
2022-08-31T08:23:14.726Z,20.00
2022-08-31T08:25:44.365Z,20.50
2022-08-31T08:28:38.128Z,20.40
2022-08-31T08:31:05.934Z,20.70
2022-08-31T08:33:36.272Z,20.60
2022-08-31T08:36:08.061Z,20.80
2022-08-31T08:38:39.494Z,20.70
2022-08-31T08:41:13.445Z,21.50
2022-08-31T08:43:50.134Z,21.20
2022-08-31T08:47:28.476Z,20.80
2022-08-31T08:49:23.522Z,21.10
2022-08-31T08:51:56.832Z,20.80
2022-08-31T08:54:35.583Z,20.40
2022-08-31T08:57:12.882Z,20.40
2022-08-31T08:59:42.030Z,21.70
2022-08-31T09:02:15.693Z,20.60
2022-08-31T09:05:12.290Z,20.30
2022-08-31T09:07:58.804Z,20.60
2022-08-31T09:10:35.584Z,20.40
2022-08-31T09:13:17.213Z,20.60
2022-08-31T09:16:04.552Z,20.60
2022-08-31T09:18:46.567Z,21.00
2022-08-31T09:21:22.883Z,20.40
2022-08-31T09:24:01.545Z,21.50
2022-08-31T09:26:33.853Z,21.10
2022-08-31T09:29:03.960Z,20.40
2022-08-31T09:31:38.760Z,20.80
2022-08-31T09:34:14.420Z,21.30
2022-08-31T09:36:42.836Z,20.50
2022-08-31T09:39:32.990Z,21.60
2022-08-31T09:42:18.297Z,21.30
2022-08-31T09:44:49.229Z,20.80
2022-08-31T09:47:43.118Z,21.20
2022-08-31T09:50:13.830Z,22.20
2022-08-31T09:52:59.475Z,21.70
2022-08-31T09:55:28.775Z,22.30
2022-08-31T09:58:03.043Z,21.70
2022-08-31T10:00:38.914Z,21.90
2022-08-31T10:03:19.798Z,22.40
2022-08-31T10:05:50.590Z,22.20
2022-08-31T10:08:42.171Z,22.30
2022-08-31T10:11:14.759Z,22.10
2022-08-31T10:13:57.301Z,22.10
2022-08-31T10:16:30.693Z,22.20
2022-08-31T10:19:04.051Z,22.00
2022-08-31T10:21:44.072Z,22.60
2022-08-31T10:24:28.528Z,22.00
2022-08-31T10:27:08.261Z,22.20
2022-08-31T10:29:44.053Z,22.80
2022-08-31T10:32:24.865Z,22.70
2022-08-31T10:35:06.034Z,22.90
2022-08-31T10:37:59.585Z,23.20
2022-08-31T10:40:32.237Z,23.40
2022-08-31T10:43:14.342Z,22.60
2022-08-31T10:45:48.241Z,23.00
2022-08-31T10:48:19.084Z,22.90
2022-08-31T10:50:53.562Z,23.20
2022-08-31T10:53:40.097Z,23.20
2022-08-31T10:56:14.411Z,22.40
2022-08-31T10:59:17.877Z,23.10
2022-08-31T11:01:56.652Z,23.70
2022-08-31T11:04:40.207Z,22.80
2022-08-31T11:07:17.609Z,22.90
2022-08-31T11:09:55.301Z,23.00
2022-08-31T11:12:30.702Z,23.10
2022-08-31T11:15:31.876Z,23.10
2022-08-31T11:18:20.844Z,23.10
2022-08-31T11:21:05.476Z,23.50
2022-08-31T11:23:53.354Z,23.90
2022-08-31T11:26:45.150Z,24.10
2022-08-31T11:29:41.577Z,24.10
2022-08-31T11:32:20.028Z,24.10
2022-08-31T11:34:53.531Z,23.90
2022-08-31T11:37:52.572Z,23.70
2022-08-31T11:41:11.202Z,22.50
2022-08-31T11:43:52.178Z,22.60
2022-08-31T11:47:01.012Z,23.10
2022-08-31T11:49:51.318Z,23.10
2022-08-31T11:52:43.329Z,23.30
2022-08-31T11:55:30.172Z,23.00
2022-08-31T11:58:18.504Z,22.30
2022-08-31T12:00:54.065Z,22.60
2022-08-31T12:04:03.790Z,22.90
2022-08-31T12:07:00.506Z,22.50
2022-08-31T12:10:08.583Z,23.10
2022-08-31T12:12:54.942Z,23.80
2022-08-31T12:15:33.254Z,23.60
2022-08-31T12:18:10.022Z,23.70
2022-08-31T12:21:12.036Z,23.70
2022-08-31T12:23:52.250Z,23.90
2022-08-31T12:26:45.049Z,24.10
2022-08-31T12:29:23.069Z,24.40
2022-08-31T12:32:20.203Z,24.30
2022-08-31T12:34:51.948Z,24.10
2022-08-31T12:37:23.288Z,24.00
2022-08-31T12:40:07.270Z,24.10
2022-08-31T12:42:39.521Z,24.20
2022-08-31T12:45:11.768Z,24.10
2022-08-31T12:47:52.020Z,24.10
2022-08-31T12:50:30.707Z,24.10
2022-08-31T12:53:28.497Z,24.20
2022-08-31T12:56:02.677Z,24.20
2022-08-31T12:58:47.134Z,24.40
2022-08-31T13:01:22.353Z,24.80
2022-08-31T13:03:54.458Z,24.90
2022-08-31T13:06:27.119Z,24.80
2022-08-31T13:08:56.165Z,24.70
2022-08-31T13:11:40.014Z,24.30
2022-08-31T13:14:14.277Z,24.10
2022-08-31T13:16:45.488Z,23.80
2022-08-31T13:19:22.859Z,22.30
2022-08-31T13:21:52.970Z,24.10
2022-08-31T13:24:28.993Z,24.10
2022-08-31T13:27:12.061Z,24.00
2022-08-31T13:29:48.041Z,23.60
2022-08-31T13:32:32.829Z,23.90
2022-08-31T13:35:04.387Z,23.80
2022-08-31T13:37:38.009Z,24.10
2022-08-31T13:40:10.582Z,24.20
2022-08-31T13:42:43.032Z,24.10
2022-08-31T13:45:26.498Z,24.40
2022-08-31T13:47:58.192Z,24.60
2022-08-31T13:50:31.456Z,24.60
2022-08-31T13:58:28.978Z,24.40
2022-08-31T14:01:23.294Z,24.50
2022-08-31T14:03:57.280Z,25.30
2022-08-31T14:06:28.442Z,24.10
2022-08-31T14:09:03.194Z,23.70
2022-08-31T14:11:33.855Z,23.50
2022-08-31T14:14:08.963Z,23.70
2022-08-31T14:16:45.219Z,23.60
2022-08-31T14:29:43.012Z,24.80
2022-08-31T14:37:19.878Z,24.90
2022-08-31T14:39:51.814Z,24.00
2022-08-31T14:42:21.805Z,24.70
2022-08-31T14:44:56.799Z,25.20
2022-08-31T14:47:27.674Z,24.70
2022-08-31T14:50:05.571Z,24.70
2022-08-31T14:52:34.654Z,24.80
2022-08-31T14:55:03.042Z,24.00
2022-08-31T14:57:33.977Z,24.80
2022-08-31T15:00:08.325Z,24.30
2022-08-31T15:02:37.329Z,24.30
2022-08-31T15:05:08.835Z,25.00
2022-08-31T15:07:40.665Z,25.30
2022-08-31T15:10:12.835Z,24.90
2022-08-31T15:12:41.486Z,24.00
2022-08-31T15:15:11.976Z,24.60
2022-08-31T15:20:11.417Z,25.10
2022-08-31T15:22:40.545Z,25.00
2022-08-31T15:25:12.468Z,25.30
2022-08-31T15:27:44.097Z,25.30
2022-08-31T15:30:16.013Z,24.90
2022-08-31T15:32:45.232Z,25.00
2022-08-31T15:35:17.968Z,24.90
2022-08-31T15:37:55.212Z,25.30
2022-08-31T15:40:25.174Z,24.60
2022-08-31T15:42:57.197Z,24.50
2022-08-31T15:45:30.660Z,24.60
2022-08-31T15:48:19.840Z,24.50
2022-08-31T15:50:52.627Z,24.50
2022-08-31T15:53:27.309Z,24.70
2022-08-31T15:55:55.478Z,24.80
2022-08-31T15:58:25.281Z,25.50
2022-08-31T16:00:54.916Z,24.70
2022-08-31T16:03:23.053Z,24.50
2022-08-31T16:05:54.070Z,25.30
2022-08-31T16:13:25.120Z,24.30
2022-08-31T16:15:54.802Z,24.40
2022-08-31T16:18:25.514Z,23.90
2022-08-31T16:20:53.542Z,24.20
2022-08-31T16:23:24.787Z,24.40
2022-08-31T16:28:22.662Z,24.10
2022-08-31T16:30:51.882Z,24.50
2022-08-31T16:33:21.848Z,23.80
2022-08-31T16:35:50.263Z,23.30
2022-08-31T16:38:19.329Z,23.60
2022-08-31T16:40:47.602Z,24.10
2022-08-31T16:43:15.944Z,23.90
2022-08-31T16:45:44.114Z,23.70
2022-08-31T16:48:30.167Z,23.80
2022-08-31T16:51:02.603Z,23.60
2022-08-31T16:53:31.776Z,24.00
2022-08-31T16:56:00.262Z,23.60
2022-08-31T16:58:50.763Z,23.80
2022-08-31T17:01:19.652Z,23.70
2022-08-31T17:03:49.869Z,22.60
2022-08-31T17:06:19.734Z,23.50
2022-08-31T17:11:23.677Z,22.70
2022-08-31T17:13:58.235Z,23.20
2022-08-31T17:16:28.806Z,23.00
2022-08-31T17:18:58.594Z,23.50
2022-08-31T17:21:31.641Z,22.30
2022-08-31T17:24:02.013Z,23.00
2022-08-31T17:26:33.763Z,23.00
2022-08-31T17:29:05.818Z,21.60
2022-08-31T17:31:42.181Z,23.00
2022-08-31T17:34:11.142Z,22.90
2022-08-31T17:36:41.237Z,22.30
2022-08-31T17:39:11.318Z,22.50
2022-08-31T17:41:41.121Z,22.80
2022-08-31T17:44:12.318Z,23.00
2022-08-31T17:46:40.439Z,22.00
2022-08-31T17:49:08.496Z,22.70
2022-08-31T17:51:37.577Z,22.20
2022-08-31T17:54:11.515Z,22.30
2022-08-31T17:56:47.691Z,21.80
2022-08-31T17:59:19.128Z,22.10
2022-08-31T18:01:49.435Z,22.30
2022-08-31T18:04:18.374Z,22.20
2022-08-31T18:06:46.737Z,22.10
2022-08-31T18:09:18.540Z,22.10
2022-08-31T18:11:48.797Z,22.10
2022-08-31T18:14:18.210Z,21.60
2022-08-31T18:16:47.409Z,21.70
2022-08-31T18:19:27.440Z,21.70
2022-08-31T18:21:56.452Z,21.60
2022-08-31T18:24:26.380Z,21.40
2022-08-31T18:26:56.756Z,21.20
2022-08-31T18:29:25.319Z,21.40
2022-08-31T18:31:56.773Z,20.80
2022-08-31T18:34:26.295Z,21.60
2022-08-31T18:36:55.406Z,21.20
2022-08-31T18:39:50.455Z,21.30
2022-08-31T18:45:19.130Z,21.80
2022-08-31T18:50:44.166Z,21.10
2022-08-31T18:53:15.357Z,20.90
2022-08-31T18:55:56.441Z,21.30
2022-08-31T19:00:57.266Z,21.60
2022-08-31T19:03:27.420Z,20.80
2022-08-31T19:05:56.506Z,21.30
2022-08-31T19:10:56.363Z,20.80
2022-08-31T19:13:30.314Z,21.20
2022-08-31T19:16:02.104Z,20.60
2022-08-31T19:18:34.128Z,20.40
2022-08-31T19:21:13.439Z,20.50
2022-08-31T19:26:10.046Z,20.60
2022-08-31T19:28:39.453Z,20.90
2022-08-31T19:31:11.674Z,20.20
2022-08-31T19:36:08.600Z,20.20
2022-08-31T19:38:38.012Z,20.40
2022-08-31T19:41:06.528Z,20.70
2022-08-31T19:46:21.206Z,20.10
2022-08-31T19:48:50.665Z,20.20
2022-08-31T19:51:20.915Z,19.80
2022-08-31T19:53:51.054Z,19.90
2022-08-31T19:56:22.067Z,19.80
2022-08-31T19:58:52.801Z,19.70
2022-08-31T20:01:25.434Z,19.80
2022-08-31T20:03:53.933Z,19.80
2022-08-31T20:08:51.341Z,20.20
2022-08-31T20:11:23.919Z,19.80
2022-08-31T20:13:52.466Z,19.60
2022-08-31T20:16:28.552Z,19.50
2022-08-31T20:19:04.610Z,20.00
2022-08-31T20:21:34.911Z,19.00
2022-08-31T20:24:07.780Z,19.80
2022-08-31T20:26:47.253Z,20.00
2022-08-31T20:29:21.430Z,18.90
2022-08-31T20:31:53.977Z,18.90
2022-08-31T20:34:24.519Z,18.80
2022-08-31T20:36:58.473Z,19.50
2022-08-31T20:39:31.717Z,18.80
2022-08-31T20:42:01.461Z,18.10
2022-08-31T20:44:31.220Z,18.70
2022-08-31T20:47:21.515Z,18.00
2022-08-31T20:49:54.692Z,18.00
2022-08-31T20:52:24.580Z,17.80
2022-08-31T20:55:01.318Z,18.50
2022-08-31T20:57:30.189Z,17.80
2022-08-31T21:00:00.362Z,17.20
2022-08-31T21:02:31.723Z,17.30
2022-08-31T21:07:48.518Z,17.20
2022-08-31T21:15:28.357Z,16.90
2022-08-31T21:17:59.542Z,17.90
2022-08-31T21:20:27.947Z,16.60
2022-08-31T21:27:54.109Z,18.30
2022-08-31T21:35:20.885Z,18.10
2022-08-31T21:40:18.566Z,16.90
2022-08-31T21:45:15.318Z,17.20
2022-08-31T21:50:12.040Z,17.10
2022-08-31T21:52:41.514Z,17.00
2022-08-31T21:55:13.410Z,16.70
2022-08-31T22:00:17.723Z,16.50
2022-08-31T22:02:50.930Z,16.90
2022-08-31T22:05:19.351Z,16.30
2022-08-31T22:07:49.225Z,16.70
2022-08-31T22:15:17.702Z,16.30
2022-08-31T22:18:09.586Z,15.80
2022-08-31T22:20:34.564Z,15.80
2022-08-31T22:23:05.362Z,15.70
2022-08-31T22:25:38.061Z,14.50
2022-08-31T22:28:07.383Z,15.60
2022-08-31T22:30:37.081Z,15.60
2022-08-31T22:33:06.009Z,15.80
2022-08-31T22:35:39.454Z,16.90
2022-08-31T22:38:10.600Z,16.10
2022-08-31T22:40:39.669Z,16.10
2022-08-31T22:45:47.602Z,15.80
2022-08-31T22:53:14.857Z,15.60
2022-08-31T22:55:44.139Z,15.90
2022-08-31T22:58:13.728Z,15.70
2022-08-31T23:05:44.050Z,15.50
2022-08-31T23:08:12.537Z,15.50
2022-08-31T23:10:42.549Z,15.70
2022-08-31T23:18:10.679Z,15.70
2022-08-31T23:20:41.077Z,15.90
2022-08-31T23:23:10.078Z,15.70
2022-08-31T23:25:41.928Z,15.50
2022-08-31T23:38:08.929Z,15.40
2022-08-31T23:40:37.115Z,15.50
2022-08-31T23:43:11.057Z,15.70
2022-08-31T23:48:09.548Z,15.60
2022-08-31T23:50:37.702Z,15.80
2022-08-31T23:53:13.629Z,15.80
2022-08-31T23:55:44.305Z,15.60
2022-08-31T23:58:16.050Z,15.70
